JTM125 ZUUU-VMMC
Flight info
| Callsign | JTM125 |
|---|---|
| Flight time | 1h 55m |
| Altitude | 35100 |
| Route | IDBOR B330 AVPAM A599 POU |
| Aircraft | B738/M-SDE2FGHIRWY/L |
Departure
| Time | 2026-04-26 11:18 |
|---|---|
| Airport | Chengdu Shuangliu International Airport (ZUUU) |
Arrival
| Time | 2026-04-26 13:14 |
|---|---|
| Airport | Macau International Airport (VMMC) |
| Time | Latitude | Longitude | Altitude | Speed | Heading |
|---|---|---|---|---|---|
| 2026-04-26 10:34 | 30.57117 | 103.95149 | 1689 ft | 0 kts | 113° |
| 2026-04-26 11:01 | 30.57114 | 103.95155 | 1689 ft | 7 kts | 113° |
| 2026-04-26 11:01 | 30.57112 | 103.95161 | 1689 ft | 2 kts | 112° |
| 2026-04-26 11:01 | 30.57121 | 103.95136 | 1689 ft | 4 kts | 112° |
| 2026-04-26 11:02 | 30.57133 | 103.95099 | 1689 ft | 5 kts | 110° |
| 2026-04-26 11:02 | 30.57134 | 103.95058 | 1689 ft | 5 kts | 115° |
| 2026-04-26 11:02 | 30.57141 | 103.95039 | 1689 ft | 0 kts | 114° |
| 2026-04-26 11:05 | 30.57141 | 103.95071 | 1689 ft | 6 kts | 59° |
| 2026-04-26 11:05 | 30.57184 | 103.95071 | 1689 ft | 7 kts | 321° |
| 2026-04-26 11:06 | 30.57210 | 103.95026 | 1689 ft | 6 kts | 295° |
| 2026-04-26 11:06 | 30.57222 | 103.94994 | 1689 ft | 6 kts | 293° |
| 2026-04-26 11:06 | 30.57243 | 103.94933 | 1689 ft | 6 kts | 292° |
| 2026-04-26 11:06 | 30.57264 | 103.94874 | 1689 ft | 9 kts | 292° |
| 2026-04-26 11:07 | 30.57290 | 103.94782 | 1689 ft | 12 kts | 265° |
| 2026-04-26 11:07 | 30.57233 | 103.94712 | 1689 ft | 11 kts | 204° |
| 2026-04-26 11:07 | 30.57155 | 103.94679 | 1689 ft | 12 kts | 200° |
| 2026-04-26 11:07 | 30.57056 | 103.94634 | 1689 ft | 18 kts | 202° |
| 2026-04-26 11:08 | 30.56934 | 103.94589 | 1689 ft | 18 kts | 196° |
| 2026-04-26 11:08 | 30.56889 | 103.94573 | 1689 ft | 0 kts | 198° |
| 2026-04-26 11:09 | 30.56871 | 103.94566 | 1689 ft | 9 kts | 200° |
| 2026-04-26 11:09 | 30.56785 | 103.94527 | 1689 ft | 14 kts | 202° |
| 2026-04-26 11:09 | 30.56694 | 103.94485 | 1689 ft | 14 kts | 201° |
| 2026-04-26 11:10 | 30.56602 | 103.94443 | 1689 ft | 14 kts | 202° |
| 2026-04-26 11:10 | 30.56510 | 103.94399 | 1689 ft | 14 kts | 201° |
| 2026-04-26 11:10 | 30.56417 | 103.94356 | 1689 ft | 14 kts | 202° |
| 2026-04-26 11:10 | 30.56323 | 103.94311 | 1689 ft | 14 kts | 202° |
| 2026-04-26 11:11 | 30.56278 | 103.94233 | 1689 ft | 12 kts | 286° |
| 2026-04-26 11:11 | 30.56305 | 103.94153 | 1689 ft | 0 kts | 292° |
| 2026-04-26 11:16 | 30.56310 | 103.94141 | 1689 ft | 6 kts | 293° |
| 2026-04-26 11:16 | 30.56336 | 103.94069 | 1689 ft | 10 kts | 293° |
| 2026-04-26 11:17 | 30.56388 | 103.94025 | 1689 ft | 9 kts | 360° |
| 2026-04-26 11:17 | 30.56427 | 103.94036 | 1689 ft | 0 kts | 16° |
| 2026-04-26 11:17 | 30.56428 | 103.94037 | 1689 ft | 1 kts | 20° |
| 2026-04-26 11:17 | 30.56663 | 103.94144 | 1689 ft | 85 kts | 18° |
| 2026-04-26 11:18 | 30.57507 | 103.94531 | 1701 ft | 170 kts | 21° |
| 2026-04-26 11:18 | 30.58707 | 103.95065 | 2361 ft | 191 kts | 21° |
| 2026-04-26 11:18 | 30.59935 | 103.95576 | 3244 ft | 189 kts | 22° |
| 2026-04-26 11:18 | 30.61147 | 103.96139 | 3975 ft | 194 kts | 25° |
| 2026-04-26 11:19 | 30.62411 | 103.96777 | 4598 ft | 206 kts | 24° |
| 2026-04-26 11:19 | 30.63781 | 103.97441 | 5205 ft | 218 kts | 24° |
| 2026-04-26 11:19 | 30.65238 | 103.98126 | 5692 ft | 239 kts | 23° |
| 2026-04-26 11:19 | 30.66830 | 103.98868 | 5762 ft | 254 kts | 23° |
| 2026-04-26 11:20 | 30.68461 | 103.99676 | 5780 ft | 257 kts | 30° |
| 2026-04-26 11:20 | 30.69394 | 104.00542 | 5777 ft | 257 kts | 49° |
| 2026-04-26 11:20 | 30.70601 | 104.02947 | 5786 ft | 259 kts | 63° |
| 2026-04-26 11:20 | 30.71356 | 104.04829 | 5775 ft | 259 kts | 63° |
| 2026-04-26 11:21 | 30.72158 | 104.06706 | 5765 ft | 258 kts | 60° |
| 2026-04-26 11:21 | 30.73002 | 104.08556 | 5788 ft | 259 kts | 60° |
| 2026-04-26 11:21 | 30.73894 | 104.10452 | 6158 ft | 276 kts | 59° |
| 2026-04-26 11:21 | 30.74781 | 104.12332 | 7383 ft | 270 kts | 59° |
| 2026-04-26 11:22 | 30.75666 | 104.14227 | 8498 ft | 268 kts | 61° |
| 2026-04-26 11:22 | 30.76220 | 104.16265 | 9474 ft | 273 kts | 81° |
| 2026-04-26 11:22 | 30.76065 | 104.18481 | 10383 ft | 283 kts | 101° |
| 2026-04-26 11:22 | 30.75306 | 104.20599 | 11203 ft | 294 kts | 116° |
| 2026-04-26 11:23 | 30.74074 | 104.22519 | 11976 ft | 307 kts | 133° |
| 2026-04-26 11:23 | 30.72233 | 104.23872 | 12831 ft | 318 kts | 158° |
| 2026-04-26 11:23 | 30.70054 | 104.24294 | 13716 ft | 325 kts | 180° |
| 2026-04-26 11:23 | 30.67841 | 104.23889 | 14660 ft | 327 kts | 197° |
| 2026-04-26 11:24 | 30.65730 | 104.22918 | 15658 ft | 327 kts | 204° |
| 2026-04-26 11:24 | 30.63696 | 104.21784 | 16564 ft | 327 kts | 206° |
| 2026-04-26 11:24 | 30.61671 | 104.20609 | 17428 ft | 329 kts | 206° |
| 2026-04-26 11:24 | 30.60309 | 104.19823 | 18054 ft | 328 kts | 206° |
| 2026-04-26 11:25 | 30.57591 | 104.18286 | 19102 ft | 332 kts | 207° |
| 2026-04-26 11:25 | 30.55486 | 104.17117 | 19758 ft | 339 kts | 207° |
| 2026-04-26 11:25 | 30.53346 | 104.15942 | 20490 ft | 342 kts | 207° |
| 2026-04-26 11:25 | 30.51185 | 104.14758 | 21149 ft | 347 kts | 207° |
| 2026-04-26 11:26 | 30.48995 | 104.13560 | 21800 ft | 351 kts | 208° |
| 2026-04-26 11:26 | 30.46777 | 104.12353 | 22456 ft | 355 kts | 207° |
| 2026-04-26 11:26 | 30.44498 | 104.11201 | 23100 ft | 360 kts | 205° |
| 2026-04-26 11:26 | 30.42153 | 104.10102 | 23730 ft | 365 kts | 204° |
| 2026-04-26 11:27 | 30.39784 | 104.09023 | 24347 ft | 369 kts | 204° |
| 2026-04-26 11:27 | 30.37363 | 104.07925 | 24673 ft | 382 kts | 203° |
| 2026-04-26 11:27 | 30.34776 | 104.06984 | 25010 ft | 395 kts | 196° |
| 2026-04-26 11:27 | 30.32043 | 104.06438 | 25329 ft | 409 kts | 188° |
| 2026-04-26 11:28 | 30.29149 | 104.06337 | 25628 ft | 423 kts | 180° |
| 2026-04-26 11:28 | 30.26170 | 104.06706 | 25887 ft | 438 kts | 172° |
| 2026-04-26 11:28 | 30.23179 | 104.07604 | 26127 ft | 452 kts | 163° |
| 2026-04-26 11:28 | 30.20251 | 104.09085 | 26404 ft | 466 kts | 153° |
| 2026-04-26 11:29 | 30.17421 | 104.11081 | 26700 ft | 477 kts | 147° |
| 2026-04-26 11:29 | 30.14692 | 104.13303 | 26950 ft | 489 kts | 144° |
| 2026-04-26 11:29 | 30.11963 | 104.15696 | 27196 ft | 500 kts | 143° |
| 2026-04-26 11:29 | 30.09203 | 104.18207 | 27547 ft | 507 kts | 142° |
| 2026-04-26 11:30 | 30.06477 | 104.20725 | 28300 ft | 505 kts | 142° |
| 2026-04-26 11:30 | 30.04628 | 104.22435 | 28826 ft | 504 kts | 142° |
| 2026-04-26 11:30 | 30.01001 | 104.25768 | 29842 ft | 501 kts | 143° |
| 2026-04-26 11:30 | 29.98283 | 104.28245 | 30581 ft | 499 kts | 143° |
| 2026-04-26 11:31 | 29.95581 | 104.30688 | 31333 ft | 496 kts | 143° |
| 2026-04-26 11:31 | 29.92856 | 104.33138 | 32087 ft | 492 kts | 144° |
| 2026-04-26 11:31 | 29.90177 | 104.35538 | 32809 ft | 489 kts | 144° |
| 2026-04-26 11:31 | 29.87480 | 104.37944 | 33501 ft | 487 kts | 144° |
| 2026-04-26 11:32 | 29.84845 | 104.40289 | 34262 ft | 483 kts | 144° |
| 2026-04-26 11:32 | 29.82187 | 104.42652 | 34838 ft | 482 kts | 145° |
| 2026-04-26 11:32 | 29.79448 | 104.45081 | 34946 ft | 487 kts | 145° |
| 2026-04-26 11:32 | 29.76754 | 104.47468 | 34948 ft | 484 kts | 145° |
| 2026-04-26 11:33 | 29.71357 | 104.52250 | 34945 ft | 483 kts | 145° |
| 2026-04-26 11:33 | 29.66018 | 104.56975 | 34942 ft | 482 kts | 145° |
| 2026-04-26 11:34 | 29.60715 | 104.61664 | 34943 ft | 481 kts | 145° |
| 2026-04-26 11:34 | 29.55414 | 104.66344 | 34934 ft | 480 kts | 145° |
| 2026-04-26 11:35 | 29.50107 | 104.71025 | 34930 ft | 480 kts | 146° |
| 2026-04-26 11:35 | 29.45678 | 104.74926 | 34938 ft | 481 kts | 145° |
| 2026-04-26 11:36 | 29.39486 | 104.80373 | 34922 ft | 477 kts | 145° |
| 2026-04-26 11:36 | 29.34131 | 104.84940 | 34921 ft | 478 kts | 149° |
| 2026-04-26 11:37 | 29.28368 | 104.88627 | 34914 ft | 472 kts | 158° |
| 2026-04-26 11:37 | 29.22370 | 104.91650 | 34902 ft | 470 kts | 160° |
| 2026-04-26 11:38 | 29.16317 | 104.94553 | 34904 ft | 470 kts | 160° |
| 2026-04-26 11:38 | 29.10281 | 104.97483 | 34903 ft | 470 kts | 160° |
| 2026-04-26 11:39 | 29.04277 | 105.00455 | 34910 ft | 470 kts | 159° |
| 2026-04-26 11:39 | 28.98266 | 105.03465 | 34911 ft | 469 kts | 159° |
| 2026-04-26 11:40 | 28.93272 | 105.05975 | 34909 ft | 468 kts | 159° |
| 2026-04-26 11:42 | 28.63353 | 105.22476 | 34901 ft | 469 kts | 148° |
| 2026-04-26 11:43 | 28.58098 | 105.26935 | 34905 ft | 472 kts | 143° |
| 2026-04-26 11:43 | 28.53014 | 105.31655 | 34911 ft | 471 kts | 143° |
| 2026-04-26 11:44 | 28.47947 | 105.36346 | 34916 ft | 471 kts | 143° |
| 2026-04-26 11:44 | 28.42812 | 105.41003 | 34942 ft | 469 kts | 143° |
| 2026-04-26 11:45 | 28.37683 | 105.45592 | 34945 ft | 468 kts | 143° |
| 2026-04-26 11:45 | 28.32571 | 105.50138 | 34961 ft | 467 kts | 143° |
| 2026-04-26 11:46 | 28.27425 | 105.54700 | 34986 ft | 466 kts | 143° |
| 2026-04-26 11:46 | 28.22310 | 105.59231 | 34992 ft | 466 kts | 143° |
| 2026-04-26 11:47 | 28.17208 | 105.63735 | 34994 ft | 462 kts | 143° |
| 2026-04-26 11:47 | 28.12110 | 105.68233 | 34983 ft | 462 kts | 144° |
| 2026-04-26 11:48 | 28.07042 | 105.72700 | 34975 ft | 463 kts | 143° |
| 2026-04-26 11:48 | 28.01912 | 105.77238 | 34962 ft | 467 kts | 143° |
| 2026-04-26 11:49 | 27.96800 | 105.81735 | 34968 ft | 462 kts | 142° |
| 2026-04-26 11:49 | 27.91722 | 105.86192 | 34972 ft | 461 kts | 143° |
| 2026-04-26 11:50 | 27.86640 | 105.90638 | 34961 ft | 461 kts | 143° |
| 2026-04-26 11:50 | 27.81583 | 105.95074 | 34956 ft | 462 kts | 143° |
| 2026-04-26 11:51 | 27.76487 | 105.99534 | 34947 ft | 464 kts | 143° |
| 2026-04-26 11:51 | 27.71405 | 106.03994 | 34951 ft | 460 kts | 143° |
| 2026-04-26 11:52 | 27.66341 | 106.08436 | 34975 ft | 468 kts | 144° |
| 2026-04-26 11:52 | 27.61162 | 106.12938 | 34977 ft | 467 kts | 144° |
| 2026-04-26 11:53 | 27.56016 | 106.17408 | 34996 ft | 470 kts | 144° |
| 2026-04-26 11:54 | 27.48246 | 106.24155 | 35000 ft | 470 kts | 144° |
| 2026-04-26 11:54 | 27.43056 | 106.28658 | 35011 ft | 471 kts | 144° |
| 2026-04-26 11:55 | 27.37820 | 106.33197 | 35021 ft | 474 kts | 144° |
| 2026-04-26 11:55 | 27.32562 | 106.37749 | 35028 ft | 476 kts | 144° |
| 2026-04-26 11:56 | 27.27316 | 106.42289 | 35024 ft | 477 kts | 144° |
| 2026-04-26 11:56 | 27.22019 | 106.46867 | 35027 ft | 479 kts | 144° |
| 2026-04-26 11:57 | 27.16732 | 106.51429 | 35030 ft | 480 kts | 144° |
| 2026-04-26 11:57 | 27.11428 | 106.56000 | 35038 ft | 483 kts | 144° |
| 2026-04-26 11:58 | 27.06093 | 106.60596 | 35051 ft | 482 kts | 143° |
| 2026-04-26 11:58 | 27.00764 | 106.65177 | 35072 ft | 484 kts | 144° |
| 2026-04-26 11:59 | 26.95368 | 106.69809 | 35076 ft | 484 kts | 144° |
| 2026-04-26 11:59 | 26.90027 | 106.74390 | 35085 ft | 484 kts | 144° |
| 2026-04-26 12:00 | 26.84652 | 106.78995 | 35078 ft | 484 kts | 144° |
| 2026-04-26 12:00 | 26.79288 | 106.83584 | 35062 ft | 485 kts | 144° |
| 2026-04-26 12:01 | 26.73898 | 106.88191 | 35061 ft | 487 kts | 144° |
| 2026-04-26 12:01 | 26.68529 | 106.92772 | 35052 ft | 486 kts | 144° |
| 2026-04-26 12:02 | 26.63141 | 106.97365 | 35054 ft | 488 kts | 144° |
| 2026-04-26 12:02 | 26.57754 | 107.01952 | 35055 ft | 486 kts | 144° |
| 2026-04-26 12:03 | 26.52381 | 107.06521 | 35061 ft | 487 kts | 145° |
| 2026-04-26 12:03 | 26.46953 | 107.11133 | 35075 ft | 487 kts | 145° |
| 2026-04-26 12:04 | 26.41577 | 107.15697 | 35085 ft | 486 kts | 145° |
| 2026-04-26 12:04 | 26.36187 | 107.20265 | 35088 ft | 487 kts | 145° |
| 2026-04-26 12:05 | 26.30811 | 107.24818 | 35092 ft | 485 kts | 146° |
| 2026-04-26 12:05 | 26.25390 | 107.29399 | 35091 ft | 484 kts | 146° |
| 2026-04-26 12:06 | 26.19991 | 107.33954 | 35077 ft | 486 kts | 146° |
| 2026-04-26 12:06 | 26.14554 | 107.38532 | 35071 ft | 487 kts | 146° |
| 2026-04-26 12:07 | 26.09177 | 107.43060 | 35070 ft | 487 kts | 146° |
| 2026-04-26 12:07 | 26.03793 | 107.47587 | 35070 ft | 486 kts | 146° |
| 2026-04-26 12:08 | 25.98378 | 107.52138 | 35069 ft | 487 kts | 146° |
| 2026-04-26 12:08 | 25.92981 | 107.56670 | 35069 ft | 486 kts | 146° |
| 2026-04-26 12:09 | 25.87553 | 107.61222 | 35073 ft | 487 kts | 146° |
| 2026-04-26 12:09 | 25.82151 | 107.65749 | 35072 ft | 485 kts | 147° |
| 2026-04-26 12:10 | 25.76755 | 107.70265 | 35071 ft | 484 kts | 147° |
| 2026-04-26 12:10 | 25.71334 | 107.74791 | 35062 ft | 486 kts | 147° |
| 2026-04-26 12:11 | 25.65928 | 107.79300 | 35063 ft | 485 kts | 147° |
| 2026-04-26 12:11 | 25.60550 | 107.83781 | 35063 ft | 484 kts | 147° |
| 2026-04-26 12:12 | 25.55156 | 107.88269 | 35056 ft | 483 kts | 147° |
| 2026-04-26 12:12 | 25.49754 | 107.92741 | 35056 ft | 479 kts | 149° |
| 2026-04-26 12:13 | 25.44021 | 107.96268 | 35046 ft | 469 kts | 167° |
| 2026-04-26 12:13 | 25.37673 | 107.97598 | 35039 ft | 460 kts | 178° |
| 2026-04-26 12:14 | 25.31327 | 107.98313 | 35040 ft | 460 kts | 179° |
| 2026-04-26 12:14 | 25.24942 | 107.98974 | 35046 ft | 458 kts | 179° |
| 2026-04-26 12:15 | 25.18604 | 107.99670 | 35039 ft | 459 kts | 179° |
| 2026-04-26 12:15 | 25.12242 | 108.00406 | 35031 ft | 458 kts | 178° |
| 2026-04-26 12:16 | 25.05901 | 108.01161 | 35018 ft | 457 kts | 178° |
| 2026-04-26 12:16 | 24.99517 | 108.01932 | 35005 ft | 457 kts | 178° |
| 2026-04-26 12:17 | 24.93206 | 108.02698 | 35005 ft | 458 kts | 178° |
| 2026-04-26 12:17 | 24.86807 | 108.03474 | 35004 ft | 458 kts | 178° |
| 2026-04-26 12:18 | 24.80444 | 108.04247 | 35005 ft | 459 kts | 178° |
| 2026-04-26 12:18 | 24.74104 | 108.05016 | 35002 ft | 459 kts | 178° |
| 2026-04-26 12:19 | 24.67726 | 108.05789 | 35005 ft | 458 kts | 178° |
| 2026-04-26 12:19 | 24.61379 | 108.06555 | 35010 ft | 460 kts | 178° |
| 2026-04-26 12:20 | 24.54999 | 108.07327 | 35005 ft | 459 kts | 178° |
| 2026-04-26 12:20 | 24.48616 | 108.08097 | 35010 ft | 461 kts | 178° |
| 2026-04-26 12:21 | 24.42234 | 108.08872 | 35005 ft | 462 kts | 178° |
| 2026-04-26 12:21 | 24.35768 | 108.09656 | 35003 ft | 468 kts | 178° |
| 2026-04-26 12:22 | 24.29317 | 108.10438 | 34998 ft | 465 kts | 178° |
| 2026-04-26 12:22 | 24.22829 | 108.11226 | 34994 ft | 467 kts | 178° |
| 2026-04-26 12:23 | 24.16417 | 108.12004 | 34997 ft | 466 kts | 178° |
| 2026-04-26 12:23 | 24.09943 | 108.12785 | 34991 ft | 467 kts | 178° |
| 2026-04-26 12:24 | 24.03478 | 108.13567 | 34992 ft | 468 kts | 178° |
| 2026-04-26 12:24 | 23.96982 | 108.14509 | 34992 ft | 471 kts | 173° |
| 2026-04-26 12:25 | 23.90830 | 108.17200 | 34992 ft | 485 kts | 151° |
| 2026-04-26 12:25 | 23.88149 | 108.19467 | 34993 ft | 494 kts | 141° |
| 2026-04-26 12:25 | 23.83681 | 108.25275 | 34986 ft | 501 kts | 124° |
| 2026-04-26 12:26 | 23.82173 | 108.28706 | 34993 ft | 507 kts | 111° |
| 2026-04-26 12:26 | 23.81299 | 108.32421 | 34997 ft | 511 kts | 100° |
| 2026-04-26 12:26 | 23.80559 | 108.40144 | 35006 ft | 512 kts | 95° |
| 2026-04-26 12:27 | 23.80136 | 108.47921 | 35011 ft | 511 kts | 94° |
| 2026-04-26 12:27 | 23.79768 | 108.55645 | 35012 ft | 511 kts | 93° |
| 2026-04-26 12:28 | 23.79376 | 108.63425 | 35009 ft | 510 kts | 94° |
| 2026-04-26 12:28 | 23.78950 | 108.71218 | 35015 ft | 510 kts | 94° |
| 2026-04-26 12:29 | 23.78504 | 108.78942 | 35012 ft | 508 kts | 95° |
| 2026-04-26 12:30 | 23.77812 | 108.90540 | 35006 ft | 509 kts | 94° |
| 2026-04-26 12:30 | 23.77347 | 108.98227 | 34995 ft | 509 kts | 94° |
| 2026-04-26 12:31 | 23.76641 | 109.09783 | 34995 ft | 508 kts | 94° |
| 2026-04-26 12:31 | 23.75873 | 109.17448 | 34990 ft | 509 kts | 100° |
| 2026-04-26 12:32 | 23.74482 | 109.25026 | 34991 ft | 510 kts | 103° |
| 2026-04-26 12:33 | 23.72081 | 109.36292 | 34987 ft | 509 kts | 104° |
| 2026-04-26 12:33 | 23.70495 | 109.43795 | 34996 ft | 510 kts | 104° |
| 2026-04-26 12:34 | 23.68931 | 109.51341 | 34993 ft | 510 kts | 103° |
| 2026-04-26 12:34 | 23.67387 | 109.58883 | 35000 ft | 510 kts | 103° |
| 2026-04-26 12:35 | 23.65845 | 109.66425 | 35001 ft | 511 kts | 104° |
| 2026-04-26 12:35 | 23.64288 | 109.73992 | 35004 ft | 509 kts | 104° |
| 2026-04-26 12:36 | 23.62735 | 109.81494 | 35009 ft | 511 kts | 104° |
| 2026-04-26 12:36 | 23.61171 | 109.89026 | 35018 ft | 508 kts | 104° |
| 2026-04-26 12:37 | 23.59602 | 109.96582 | 35028 ft | 509 kts | 104° |
| 2026-04-26 12:37 | 23.58037 | 110.04101 | 35035 ft | 509 kts | 104° |
| 2026-04-26 12:38 | 23.56456 | 110.11674 | 35027 ft | 509 kts | 104° |
| 2026-04-26 12:38 | 23.54878 | 110.19212 | 35011 ft | 510 kts | 104° |
| 2026-04-26 12:39 | 23.53288 | 110.26777 | 34998 ft | 511 kts | 104° |
| 2026-04-26 12:39 | 23.51691 | 110.34352 | 34995 ft | 512 kts | 104° |
| 2026-04-26 12:40 | 23.50121 | 110.41871 | 34999 ft | 513 kts | 103° |
| 2026-04-26 12:40 | 23.48581 | 110.49447 | 35003 ft | 513 kts | 103° |
| 2026-04-26 12:41 | 23.47052 | 110.57005 | 35007 ft | 513 kts | 103° |
| 2026-04-26 12:41 | 23.45512 | 110.64590 | 35010 ft | 514 kts | 103° |
| 2026-04-26 12:42 | 23.43961 | 110.72182 | 35010 ft | 512 kts | 103° |
| 2026-04-26 12:42 | 23.42386 | 110.79768 | 35012 ft | 513 kts | 104° |
| 2026-04-26 12:43 | 23.40784 | 110.87340 | 35015 ft | 514 kts | 104° |
| 2026-04-26 12:43 | 23.39171 | 110.94927 | 35020 ft | 514 kts | 104° |
| 2026-04-26 12:44 | 23.37561 | 111.02502 | 35024 ft | 514 kts | 103° |
| 2026-04-26 12:44 | 23.35951 | 111.10061 | 35020 ft | 514 kts | 103° |
| 2026-04-26 12:45 | 23.34352 | 111.17586 | 35018 ft | 514 kts | 103° |
| 2026-04-26 12:45 | 23.32783 | 111.25195 | 35019 ft | 514 kts | 103° |
| 2026-04-26 12:46 | 23.31250 | 111.32742 | 35016 ft | 514 kts | 103° |
| 2026-04-26 12:46 | 23.29708 | 111.40311 | 35014 ft | 512 kts | 102° |
| 2026-04-26 12:47 | 23.28160 | 111.47869 | 35010 ft | 513 kts | 103° |
| 2026-04-26 12:47 | 23.26591 | 111.55473 | 35010 ft | 513 kts | 103° |
| 2026-04-26 12:48 | 23.24999 | 111.63039 | 35012 ft | 513 kts | 103° |
| 2026-04-26 12:48 | 23.23400 | 111.70561 | 35017 ft | 512 kts | 103° |
| 2026-04-26 12:49 | 23.20793 | 111.82794 | 35035 ft | 511 kts | 103° |
| 2026-04-26 12:49 | 23.15510 | 112.08020 | 35062 ft | 511 kts | 103° |
| 2026-04-26 12:50 | 23.12363 | 112.23180 | 35039 ft | 511 kts | 102° |
| 2026-04-26 12:50 | 23.09512 | 112.36760 | 35029 ft | 512 kts | 103° |
| 2026-04-26 12:51 | 23.07915 | 112.44311 | 35032 ft | 512 kts | 102° |
| 2026-04-26 12:51 | 23.07200 | 112.48080 | 34893 ft | 505 kts | 99° |
| 2026-04-26 12:51 | 23.06707 | 112.51757 | 34739 ft | 491 kts | 96° |
| 2026-04-26 12:51 | 23.06359 | 112.55411 | 34323 ft | 484 kts | 94° |
| 2026-04-26 12:52 | 23.06099 | 112.59046 | 33685 ft | 481 kts | 92° |
| 2026-04-26 12:52 | 23.05882 | 112.62658 | 33105 ft | 477 kts | 92° |
| 2026-04-26 12:52 | 23.05683 | 112.66198 | 32543 ft | 474 kts | 92° |
| 2026-04-26 12:52 | 23.05482 | 112.69764 | 32025 ft | 470 kts | 92° |
| 2026-04-26 12:53 | 23.05274 | 112.73292 | 31464 ft | 466 kts | 93° |
| 2026-04-26 12:53 | 23.05062 | 112.76745 | 30936 ft | 462 kts | 93° |
| 2026-04-26 12:53 | 23.04842 | 112.80204 | 30432 ft | 457 kts | 93° |
| 2026-04-26 12:53 | 23.04617 | 112.83627 | 29943 ft | 453 kts | 93° |
| 2026-04-26 12:54 | 23.04392 | 112.86987 | 29371 ft | 450 kts | 94° |
| 2026-04-26 12:54 | 23.04161 | 112.90382 | 28835 ft | 447 kts | 94° |
| 2026-04-26 12:54 | 23.03934 | 112.93685 | 28370 ft | 442 kts | 94° |
| 2026-04-26 12:54 | 23.03705 | 112.96995 | 27902 ft | 437 kts | 94° |
| 2026-04-26 12:55 | 23.03477 | 113.00279 | 27390 ft | 434 kts | 94° |
| 2026-04-26 12:55 | 23.03251 | 113.03526 | 26891 ft | 430 kts | 94° |
| 2026-04-26 12:55 | 23.03027 | 113.06728 | 26415 ft | 426 kts | 95° |
| 2026-04-26 12:55 | 23.02805 | 113.09904 | 25985 ft | 420 kts | 95° |
| 2026-04-26 12:56 | 23.02584 | 113.13016 | 25530 ft | 416 kts | 95° |
| 2026-04-26 12:56 | 23.02264 | 113.16123 | 25004 ft | 413 kts | 99° |
| 2026-04-26 12:56 | 23.01671 | 113.19133 | 24605 ft | 405 kts | 108° |
| 2026-04-26 12:56 | 23.00736 | 113.21980 | 24092 ft | 400 kts | 115° |
| 2026-04-26 12:57 | 22.99575 | 113.24728 | 23625 ft | 395 kts | 118° |
| 2026-04-26 12:57 | 22.98350 | 113.27340 | 23144 ft | 391 kts | 120° |
| 2026-04-26 12:57 | 22.97085 | 113.29934 | 22684 ft | 387 kts | 120° |
| 2026-04-26 12:58 | 22.94574 | 113.35039 | 21739 ft | 380 kts | 120° |
| 2026-04-26 12:58 | 22.93353 | 113.37537 | 21288 ft | 376 kts | 120° |
| 2026-04-26 12:58 | 22.92142 | 113.40034 | 20820 ft | 372 kts | 119° |
| 2026-04-26 12:58 | 22.90873 | 113.42466 | 20310 ft | 369 kts | 124° |
| 2026-04-26 12:59 | 22.89344 | 113.44685 | 19833 ft | 363 kts | 134° |
| 2026-04-26 12:59 | 22.87517 | 113.46504 | 19358 ft | 358 kts | 144° |
| 2026-04-26 12:59 | 22.85444 | 113.47980 | 18856 ft | 354 kts | 152° |
| 2026-04-26 12:59 | 22.83252 | 113.49176 | 18349 ft | 350 kts | 158° |
| 2026-04-26 13:00 | 22.80947 | 113.50048 | 17854 ft | 346 kts | 166° |
| 2026-04-26 13:00 | 22.78621 | 113.50653 | 17352 ft | 339 kts | 169° |
| 2026-04-26 13:00 | 22.76383 | 113.51123 | 16984 ft | 323 kts | 171° |
| 2026-04-26 13:00 | 22.74185 | 113.51556 | 16469 ft | 314 kts | 171° |
| 2026-04-26 13:01 | 22.72068 | 113.51981 | 15838 ft | 310 kts | 170° |
| 2026-04-26 13:01 | 22.69962 | 113.52422 | 15203 ft | 306 kts | 169° |
| 2026-04-26 13:01 | 22.67889 | 113.52872 | 14547 ft | 302 kts | 169° |
| 2026-04-26 13:01 | 22.65844 | 113.53326 | 13904 ft | 299 kts | 169° |
| 2026-04-26 13:02 | 22.63839 | 113.53775 | 13269 ft | 294 kts | 169° |
| 2026-04-26 13:02 | 22.61844 | 113.54222 | 12607 ft | 291 kts | 169° |
| 2026-04-26 13:02 | 22.59876 | 113.54663 | 11942 ft | 288 kts | 169° |
| 2026-04-26 13:02 | 22.57942 | 113.55096 | 11226 ft | 274 kts | 169° |
| 2026-04-26 13:03 | 22.56107 | 113.55506 | 10217 ft | 268 kts | 168° |
| 2026-04-26 13:03 | 22.54339 | 113.55901 | 9505 ft | 253 kts | 168° |
| 2026-04-26 13:03 | 22.52659 | 113.56320 | 8861 ft | 241 kts | 165° |
| 2026-04-26 13:03 | 22.51115 | 113.56795 | 8353 ft | 227 kts | 163° |
| 2026-04-26 13:04 | 22.49632 | 113.57292 | 7903 ft | 214 kts | 163° |
| 2026-04-26 13:04 | 22.48253 | 113.57754 | 7514 ft | 204 kts | 163° |
| 2026-04-26 13:04 | 22.46930 | 113.58189 | 7205 ft | 190 kts | 163° |
| 2026-04-26 13:04 | 22.45717 | 113.58585 | 7004 ft | 171 kts | 164° |
| 2026-04-26 13:05 | 22.44661 | 113.58928 | 6896 ft | 149 kts | 163° |
| 2026-04-26 13:05 | 22.43683 | 113.59246 | 6575 ft | 147 kts | 164° |
| 2026-04-26 13:05 | 22.42701 | 113.59564 | 6229 ft | 147 kts | 165° |
| 2026-04-26 13:05 | 22.41725 | 113.59881 | 5909 ft | 145 kts | 164° |
| 2026-04-26 13:06 | 22.40777 | 113.60189 | 5560 ft | 141 kts | 164° |
| 2026-04-26 13:06 | 22.39844 | 113.60492 | 5156 ft | 141 kts | 163° |
| 2026-04-26 13:06 | 22.38915 | 113.60792 | 4753 ft | 139 kts | 163° |
| 2026-04-26 13:06 | 22.37983 | 113.61095 | 4344 ft | 139 kts | 162° |
| 2026-04-26 13:07 | 22.37064 | 113.61394 | 3939 ft | 138 kts | 162° |
| 2026-04-26 13:07 | 22.36159 | 113.61684 | 3537 ft | 137 kts | 162° |
| 2026-04-26 13:07 | 22.35249 | 113.61971 | 3135 ft | 137 kts | 162° |
| 2026-04-26 13:07 | 22.34337 | 113.62258 | 2747 ft | 135 kts | 161° |
| 2026-04-26 13:08 | 22.33458 | 113.62534 | 2568 ft | 128 kts | 161° |
| 2026-04-26 13:08 | 22.32579 | 113.62811 | 2598 ft | 134 kts | 161° |
| 2026-04-26 13:08 | 22.31679 | 113.63094 | 2436 ft | 133 kts | 161° |
| 2026-04-26 13:08 | 22.30792 | 113.63372 | 2255 ft | 131 kts | 161° |
| 2026-04-26 13:09 | 22.29908 | 113.63649 | 2074 ft | 131 kts | 161° |
| 2026-04-26 13:09 | 22.29034 | 113.63923 | 1915 ft | 130 kts | 161° |
| 2026-04-26 13:09 | 22.28137 | 113.64088 | 1787 ft | 130 kts | 176° |
| 2026-04-26 13:09 | 22.27220 | 113.63970 | 1806 ft | 134 kts | 189° |
| 2026-04-26 13:10 | 22.26335 | 113.63648 | 1802 ft | 135 kts | 202° |
| 2026-04-26 13:10 | 22.25541 | 113.63084 | 1804 ft | 138 kts | 217° |
| 2026-04-26 13:10 | 22.24880 | 113.62325 | 1805 ft | 139 kts | 229° |
| 2026-04-26 13:10 | 22.24303 | 113.61483 | 1805 ft | 140 kts | 230° |
| 2026-04-26 13:11 | 22.23726 | 113.60649 | 1704 ft | 138 kts | 230° |
| 2026-04-26 13:11 | 22.23136 | 113.59807 | 1501 ft | 140 kts | 229° |
| 2026-04-26 13:11 | 22.22527 | 113.58988 | 1323 ft | 140 kts | 227° |
| 2026-04-26 13:11 | 22.21912 | 113.58189 | 1161 ft | 138 kts | 226° |
| 2026-04-26 13:12 | 22.21107 | 113.57656 | 975 ft | 132 kts | 193° |
| 2026-04-26 13:12 | 22.20210 | 113.57509 | 815 ft | 129 kts | 179° |
| 2026-04-26 13:12 | 22.19299 | 113.57537 | 630 ft | 131 kts | 169° |
| 2026-04-26 13:12 | 22.18442 | 113.57806 | 488 ft | 129 kts | 157° |
| 2026-04-26 13:13 | 22.17593 | 113.58136 | 354 ft | 128 kts | 158° |
| 2026-04-26 13:13 | 22.16744 | 113.58449 | 176 ft | 130 kts | 159° |
| 2026-04-26 13:13 | 22.15902 | 113.58784 | 62 ft | 123 kts | 161° |
| 2026-04-26 13:13 | 22.15150 | 113.59061 | 12 ft | 90 kts | 163° |
| 2026-04-26 13:14 | 22.14823 | 113.59184 | 12 ft | 13 kts | 161° |
| 2026-04-26 13:14 | 22.14815 | 113.59187 | 12 ft | 0 kts | 161° |
| 2026-04-26 13:14 | 22.14789 | 113.59197 | 12 ft | 8 kts | 162° |
| 2026-04-26 13:14 | 22.14700 | 113.59229 | 12 ft | 18 kts | 161° |
| 2026-04-26 13:15 | 22.14587 | 113.59169 | 12 ft | 22 kts | 249° |
| 2026-04-26 13:15 | 22.14579 | 113.59137 | 12 ft | 0 kts | 265° |
| 2026-04-26 13:15 | 22.14578 | 113.59116 | 12 ft | 7 kts | 270° |
| 2026-04-26 13:16 | 22.14637 | 113.59064 | 12 ft | 16 kts | 338° |
| 2026-04-26 13:16 | 22.14753 | 113.58986 | 12 ft | 21 kts | 305° |
| 2026-04-26 13:16 | 22.14840 | 113.58852 | 10 ft | 22 kts | 303° |
| 2026-04-26 13:16 | 22.14927 | 113.58710 | 9 ft | 22 kts | 304° |
| 2026-04-26 13:17 | 22.15031 | 113.58542 | 9 ft | 0 kts | 300° |
| 2026-04-26 13:18 | 22.15036 | 113.58533 | 9 ft | 2 kts | 301° |
| 2026-04-26 13:18 | 22.15051 | 113.58508 | 9 ft | 7 kts | 303° |
| 2026-04-26 13:18 | 22.15159 | 113.58335 | 9 ft | 24 kts | 304° |
| 2026-04-26 13:19 | 22.15257 | 113.58179 | 9 ft | 25 kts | 302° |
| 2026-04-26 13:19 | 22.15353 | 113.58023 | 9 ft | 25 kts | 303° |
| 2026-04-26 13:19 | 22.15447 | 113.57867 | 11 ft | 24 kts | 307° |
| 2026-04-26 13:19 | 22.15539 | 113.57723 | 13 ft | 23 kts | 303° |
| 2026-04-26 13:20 | 22.15639 | 113.57603 | 18 ft | 20 kts | 355° |
| 2026-04-26 13:20 | 22.15701 | 113.57680 | 16 ft | 16 kts | 140° |
| 2026-04-26 13:20 | 22.15662 | 113.57715 | 14 ft | 0 kts | 140° |